To NAV CANADA Home Page Login to a new session Search on AWWS site Disclaimer Vers la page française équivalente Tips FAQ What's new on the site To the Forecasts and Observations / NOTAM section To "File a Flight Plan" website Publications and other links Update of the User's profile FIC Telephone Numbers My Weather Data Folder Route Weather Data Regional Weather Data Local Weather Data To the Forecasts and Observations / NOTAM section
Request Generated 08/06/2020 at 19:25:08 UTC . Weather information available at that time is displayed.

METAR/TAF

TORONTO/BILLY BISHOP TORONTO CITY AIRPORT/ON    (show WxCam)

METAR CYTZ 061900Z AUTO 15006KT 110V180 9SM CLR 22/14 A3013 RMK SLP206 DENSITY ALT 800FT=
METAR CYTZ 061800Z AUTO 13007KT 9SM CLR 22/14 A3014 RMK SLP210 DENSITY ALT 800FT=
METAR CYTZ 061700Z AUTO 14007KT 120V190 9SM CLR 21/13 A3015 RMK TS/LTNG TEMPO UNAVBL SLP213 DENSITY ALT 700FT=

TAF CYTZ 061338Z 0614/0714 VRB03KT P6SM FEW240
FM061600 16007KT P6SM SCT050
BECMG 0623/0701 10007KT
FM070300 02007KT P6SM FEW050 SCT250
RMK FCST BASED ON AUTO OBS. NXT FCST BY 062000Z=
Your time UTC time
Weather data provided by Environment Canada and NAV CANADA